Time;durP1;ratioP1;P1;durP2;ratioP2;P2;SDS_P1;SDS_P2;PMS_P1;PMS_P2;Temp;Humidity;BMP_temperature;BMP_pressure;BME280_temperature;BME280_humidity;BME280_pressure;Samples;Min_cycle;Max_cycle;Signal;HPM_P1;HPM_P2
2024/01/18 00:01:03;;;;;;;0.13;0.13;;;9.50;99.90;;;;;;5090718;28;20291;-63
2024/01/18 00:03:28;;;;;;;0.00;0.00;;;9.30;99.90;;;;;;5090350;28;20214;-63
2024/01/18 00:05:54;;;;;;;0.10;0.10;;;9.10;99.90;;;;;;5089749;28;20183;-64
2024/01/18 00:08:19;;;;;;;0.05;0.05;;;8.90;99.90;;;;;;5090048;28;20218;-64
2024/01/18 00:10:44;;;;;;;0.20;0.20;;;8.70;99.90;;;;;;5089845;28;20174;-63
2024/01/18 00:13:11;;;;;;;0.00;0.00;;;8.60;99.90;;;;;;5089970;28;20719;-64
2024/01/18 00:15:37;;;;;;;0.20;0.20;;;8.40;99.90;;;;;;5090046;28;20180;-63
2024/01/18 00:18:04;;;;;;;0.00;0.00;;;8.30;99.90;;;;;;5090450;28;20308;-64
2024/01/18 00:20:30;;;;;;;0.00;0.00;;;8.20;99.90;;;;;;5089908;28;20180;-63
2024/01/18 00:22:55;;;;;;;0.00;0.00;;;8.10;99.90;;;;;;5089286;28;20215;-64
2024/01/18 00:25:21;;;;;;;0.00;0.00;;;8.10;99.90;;;;;;5090002;28;20199;-64
2024/01/18 00:27:47;;;;;;;0.10;0.10;;;8.00;99.90;;;;;;5090189;28;20251;-64
2024/01/18 00:30:13;;;;;;;0.03;0.03;;;7.90;99.90;;;;;;5090291;28;20176;-64
2024/01/18 00:32:39;;;;;;;0.00;0.00;;;7.80;99.90;;;;;;5089922;28;20666;-64
2024/01/18 00:35:04;;;;;;;0.00;0.00;;;7.60;99.90;;;;;;5090224;28;20204;-64
2024/01/18 00:37:30;;;;;;;0.00;0.00;;;7.40;99.90;;;;;;5090010;28;20557;-64
2024/01/18 00:39:55;;;;;;;0.00;0.00;;;7.20;99.90;;;;;;5089106;28;20227;-64
2024/01/18 00:42:21;;;;;;;0.00;0.00;;;6.90;99.90;;;;;;5089513;28;20273;-64
2024/01/18 00:44:46;;;;;;;0.03;0.00;;;6.70;99.90;;;;;;5089872;28;20661;-63
2024/01/18 00:47:12;;;;;;;0.00;0.00;;;6.40;99.90;;;;;;5089954;28;20192;-64
2024/01/18 00:49:37;;;;;;;0.00;0.00;;;6.20;99.90;;;;;;5089951;28;20183;-63
2024/01/18 00:52:04;;;;;;;0.00;0.00;;;6.00;99.90;;;;;;5089857;28;20176;-63
2024/01/18 00:54:29;;;;;;;0.00;0.00;;;5.80;99.90;;;;;;5090103;28;20180;-62
2024/01/18 00:56:55;;;;;;;0.00;0.00;;;5.50;99.90;;;;;;5089893;28;20184;-63
2024/01/18 00:59:20;;;;;;;0.00;0.00;;;5.30;99.90;;;;;;5089989;28;20184;-64
2024/01/18 01:01:46;;;;;;;0.00;0.00;;;5.10;99.90;;;;;;5089599;28;20216;-65
2024/01/18 01:04:12;;;;;;;0.00;0.00;;;4.80;99.90;;;;;;5090033;28;20191;-65
2024/01/18 01:06:37;;;;;;;0.00;0.00;;;4.60;99.90;;;;;;5089624;28;20215;-65
2024/01/18 01:09:03;;;;;;;0.00;0.00;;;4.60;99.90;;;;;;5087346;28;20183;-65
2024/01/18 01:11:29;;;;;;;0.00;0.00;;;4.40;99.90;;;;;;5084752;28;20192;-63
2024/01/18 01:13:55;;;;;;;0.00;0.00;;;4.30;99.90;;;;;;5084683;28;20188;-64
2024/01/18 01:16:21;;;;;;;0.00;0.00;;;4.30;99.90;;;;;;5084968;28;20187;-64
2024/01/18 01:18:46;;;;;;;0.00;0.00;;;4.20;99.90;;;;;;5088233;28;20176;-64
2024/01/18 01:21:12;;;;;;;0.00;0.00;;;4.10;99.90;;;;;;5088317;28;20261;-64
2024/01/18 01:23:41;;;;;;;0.00;0.00;;;4.10;99.90;;;;;;5088501;28;20933;-63
2024/01/18 01:26:08;;;;;;;0.00;0.00;;;4.20;99.90;;;;;;5088464;28;20176;-63
2024/01/18 01:28:34;;;;;;;0.00;0.00;;;4.20;99.90;;;;;;5088540;28;20742;-63
2024/01/18 01:30:59;;;;;;;0.00;0.00;;;4.20;99.90;;;;;;5091088;28;20295;-64
2024/01/18 01:33:25;;;;;;;0.00;0.00;;;4.20;99.90;;;;;;5088227;28;20176;-64
2024/01/18 01:35:50;;;;;;;0.00;0.00;;;4.20;99.90;;;;;;5087788;28;20588;-64
2024/01/18 01:38:16;;;;;;;0.08;0.08;;;4.20;99.90;;;;;;5086153;28;20188;-63
2024/01/18 01:40:41;;;;;;;0.00;0.00;;;4.10;99.90;;;;;;5088747;28;20180;-64
2024/01/18 01:43:07;;;;;;;0.00;0.00;;;4.10;99.90;;;;;;5093042;28;20565;-64
2024/01/18 01:45:32;;;;;;;0.00;0.00;;;4.10;99.90;;;;;;5092939;28;20208;-63
2024/01/18 01:47:58;;;;;;;0.10;0.10;;;4.10;99.90;;;;;;5091567;28;20179;-64
2024/01/18 01:50:24;;;;;;;0.00;0.00;;;4.00;99.90;;;;;;5092929;28;20184;-64
2024/01/18 01:52:50;;;;;;;0.00;0.00;;;4.00;99.90;;;;;;5092619;28;20654;-64
2024/01/18 01:55:16;;;;;;;0.00;0.00;;;3.90;99.90;;;;;;5092278;28;20196;-64
2024/01/18 01:57:45;;;;;;;0.00;0.00;;;3.80;99.90;;;;;;5092541;28;20179;-63
2024/01/18 02:00:14;;;;;;;0.00;0.00;;;3.80;99.90;;;;;;5092401;28;20172;-63
2024/01/18 02:02:41;;;;;;;0.00;0.00;;;3.60;99.90;;;;;;5092502;28;20223;-63
2024/01/18 02:05:07;;;;;;;0.00;0.00;;;3.50;99.90;;;;;;5092544;28;20164;-64
2024/01/18 02:07:36;;;;;;;0.00;0.00;;;3.40;99.90;;;;;;5092003;28;20195;-64
2024/01/18 02:10:02;;;;;;;0.00;0.00;;;3.30;99.90;;;;;;5092746;28;20184;-64
2024/01/18 02:12:29;;;;;;;0.00;0.00;;;3.30;99.90;;;;;;5092130;28;20328;-64
2024/01/18 02:14:54;;;;;;;0.00;0.00;;;3.30;99.90;;;;;;5092015;28;20602;-64
2024/01/18 02:17:20;;;;;;;0.00;0.00;;;3.20;99.90;;;;;;5092287;28;20172;-63
2024/01/18 02:19:46;;;;;;;0.00;0.00;;;3.20;99.90;;;;;;5092282;28;20267;-64
2024/01/18 02:22:14;;;;;;;0.00;0.00;;;3.20;99.90;;;;;;5091810;28;20216;-64
2024/01/18 02:24:51;;;;;;;0.00;0.00;;;3.20;99.90;;;;;;5087321;28;20191;-64
2024/01/18 02:27:17;;;;;;;0.00;0.00;;;3.30;99.90;;;;;;5091677;28;20639;-64
2024/01/18 02:29:43;;;;;;;0.00;0.00;;;3.30;99.90;;;;;;5091885;28;20237;-64
2024/01/18 02:32:09;;;;;;;0.00;0.00;;;3.30;99.90;;;;;;5092021;28;20573;-64
2024/01/18 02:34:39;;;;;;;0.00;0.00;;;3.40;99.90;;;;;;5091530;28;20279;-64
2024/01/18 02:37:08;;;;;;;0.00;0.00;;;3.40;99.90;;;;;;5091819;28;20190;-64
2024/01/18 02:39:34;;;;;;;0.00;0.00;;;3.30;99.90;;;;;;5091733;28;20231;-63
2024/01/18 02:42:00;;;;;;;0.00;0.00;;;3.20;99.90;;;;;;5090803;28;20289;-63
2024/01/18 02:44:27;;;;;;;0.00;0.00;;;3.10;99.90;;;;;;5091494;28;20183;-64
2024/01/18 02:46:53;;;;;;;0.00;0.00;;;3.10;99.90;;;;;;5091417;28;20164;-64
2024/01/18 02:49:18;;;;;;;0.00;0.00;;;3.10;99.90;;;;;;5091526;28;20179;-63
2024/01/18 02:51:44;;;;;;;0.00;0.00;;;3.00;99.90;;;;;;5091338;28;20173;-64
2024/01/18 02:54:10;;;;;;;0.00;0.00;;;3.00;99.90;;;;;;5091511;28;20192;-64
2024/01/18 02:56:37;;;;;;;0.00;0.00;;;3.00;99.90;;;;;;5091092;28;20774;-63
2024/01/18 02:59:03;;;;;;;0.00;0.00;;;3.00;99.90;;;;;;5091564;28;20233;-64
2024/01/18 03:01:29;;;;;;;0.00;0.00;;;3.00;99.90;;;;;;5089432;28;20710;-63
2024/01/18 03:03:54;;;;;;;0.00;0.00;;;3.00;99.90;;;;;;5090610;28;20525;-65
2024/01/18 03:06:20;;;;;;;0.00;0.00;;;2.90;99.90;;;;;;5090726;28;20192;-64
2024/01/18 03:08:45;;;;;;;0.00;0.00;;;2.90;99.90;;;;;;5090791;28;20191;-64
2024/01/18 03:11:11;;;;;;;0.00;0.00;;;2.80;99.90;;;;;;5091503;28;20238;-64
2024/01/18 03:13:36;;;;;;;0.00;0.00;;;2.80;99.90;;;;;;5091089;28;20191;-63
2024/01/18 03:16:02;;;;;;;0.00;0.00;;;2.80;99.90;;;;;;5091306;28;20176;-63
2024/01/18 03:18:28;;;;;;;0.00;0.00;;;2.70;99.90;;;;;;5090758;28;20198;-64
2024/01/18 03:20:53;;;;;;;0.00;0.00;;;2.70;99.90;;;;;;5091040;28;20184;-64
2024/01/18 03:23:19;;;;;;;0.00;0.00;;;2.70;99.90;;;;;;5090741;28;20176;-63
2024/01/18 03:25:44;;;;;;;0.00;0.00;;;2.70;99.90;;;;;;5090806;28;20519;-64
2024/01/18 03:28:10;;;;;;;0.00;0.00;;;2.70;99.90;;;;;;5091089;28;20188;-64
2024/01/18 03:30:35;;;;;;;0.00;0.00;;;2.70;99.90;;;;;;5090423;28;20183;-64
2024/01/18 03:33:01;;;;;;;0.00;0.00;;;2.60;99.90;;;;;;5090759;28;20647;-64
2024/01/18 03:35:26;;;;;;;0.00;0.00;;;2.60;99.90;;;;;;5090895;28;20187;-65
2024/01/18 03:37:52;;;;;;;0.00;0.00;;;2.50;99.90;;;;;;5090454;28;20180;-63
2024/01/18 03:40:17;;;;;;;0.00;0.00;;;2.50;99.90;;;;;;5089732;28;20220;-64
2024/01/18 03:42:43;;;;;;;0.00;0.00;;;2.50;99.90;;;;;;5090477;28;20743;-64
2024/01/18 03:45:09;;;;;;;0.00;0.00;;;2.50;99.90;;;;;;5090918;28;20179;-64
2024/01/18 03:47:34;;;;;;;0.00;0.00;;;2.50;99.90;;;;;;5090640;28;20179;-63
2024/01/18 03:50:00;;;;;;;0.00;0.00;;;2.50;99.90;;;;;;5089358;28;20617;-64
2024/01/18 03:52:25;;;;;;;0.00;0.00;;;2.50;99.90;;;;;;5090576;28;20180;-65
2024/01/18 03:54:51;;;;;;;0.00;0.00;;;2.50;99.90;;;;;;5090256;28;20262;-64
2024/01/18 03:57:16;;;;;;;0.00;0.00;;;2.50;99.90;;;;;;5090494;28;20544;-65
2024/01/18 03:59:45;;;;;;;0.00;0.00;;;2.50;99.90;;;;;;5090600;28;20179;-64
2024/01/18 04:02:10;;;;;;;0.00;0.00;;;2.50;99.90;;;;;;5090315;28;20247;-64
2024/01/18 04:04:36;;;;;;;0.00;0.00;;;2.40;99.90;;;;;;5088852;28;20245;-64
2024/01/18 04:07:02;;;;;;;0.00;0.00;;;2.40;99.90;;;;;;5090364;28;20191;-64
2024/01/18 04:09:27;;;;;;;0.00;0.00;;;2.40;99.90;;;;;;5090654;28;20639;-64
2024/01/18 04:11:53;;;;;;;0.00;0.00;;;2.30;99.90;;;;;;5087474;28;20184;-64
2024/01/18 04:14:18;;;;;;;0.00;0.00;;;2.30;99.90;;;;;;5090472;28;20697;-64
2024/01/18 04:16:44;;;;;;;0.00;0.00;;;2.40;99.90;;;;;;5090039;28;20194;-64
2024/01/18 04:19:09;;;;;;;0.00;0.00;;;2.40;99.90;;;;;;5090382;28;20176;-64
2024/01/18 04:21:35;;;;;;;0.00;0.00;;;2.40;99.90;;;;;;5090063;28;20211;-64
2024/01/18 04:24:01;;;;;;;0.20;0.20;;;2.40;99.90;;;;;;5089087;28;20326;-63
2024/01/18 04:26:27;;;;;;;0.00;0.00;;;2.50;99.90;;;;;;5089498;28;20233;-64
2024/01/18 04:28:53;;;;;;;0.00;0.00;;;2.50;99.90;;;;;;5089597;28;20191;-65
2024/01/18 04:31:18;;;;;;;0.10;0.10;;;2.50;99.90;;;;;;5089868;28;20574;-65
2024/01/18 04:33:44;;;;;;;0.00;0.00;;;2.50;99.90;;;;;;5090076;28;20175;-63
2024/01/18 04:36:10;;;;;;;0.00;0.00;;;2.50;99.90;;;;;;5088897;28;20271;-64
2024/01/18 04:38:37;;;;;;;0.00;0.00;;;2.50;99.90;;;;;;5089168;28;20770;-64
2024/01/18 04:41:03;;;;;;;0.43;0.38;;;2.40;99.90;;;;;;5088885;28;20176;-62
2024/01/18 04:43:29;;;;;;;0.00;0.00;;;2.40;99.90;;;;;;5089461;28;20218;-58
2024/01/18 04:45:54;;;;;;;0.00;0.00;;;2.40;99.90;;;;;;5089887;28;20176;-61
2024/01/18 04:48:20;;;;;;;0.00;0.00;;;2.40;99.90;;;;;;5090473;28;20176;-59
2024/01/18 04:50:46;;;;;;;0.00;0.00;;;2.40;99.90;;;;;;5090464;28;20249;-61
2024/01/18 04:53:11;;;;;;;0.00;0.00;;;2.40;99.90;;;;;;5094202;28;20180;-61
2024/01/18 04:55:37;;;;;;;0.00;0.00;;;2.30;99.90;;;;;;5094240;28;20188;-62
2024/01/18 04:58:02;;;;;;;0.00;0.00;;;2.30;99.90;;;;;;5094261;28;20532;-63
2024/01/18 05:00:28;;;;;;;0.00;0.00;;;2.30;99.90;;;;;;5094032;28;20183;-62
2024/01/18 05:02:53;;;;;;;0.10;0.10;;;2.30;99.90;;;;;;5093133;28;20270;-65
2024/01/18 05:05:19;;;;;;;0.00;0.00;;;2.30;99.90;;;;;;5092408;28;20176;-62
2024/01/18 05:07:46;;;;;;;0.00;0.00;;;2.30;99.90;;;;;;5092363;28;20701;-63
2024/01/18 05:10:11;;;;;;;0.00;0.00;;;2.20;99.90;;;;;;5094063;28;20176;-65
2024/01/18 05:12:38;;;;;;;0.00;0.00;;;2.20;99.90;;;;;;5094116;28;20640;-63
2024/01/18 05:15:04;;;;;;;0.00;0.00;;;2.20;99.90;;;;;;5094318;28;20180;-63
2024/01/18 05:17:35;;;;;;;0.00;0.00;;;2.20;99.90;;;;;;5094141;28;20255;-63
2024/01/18 05:20:03;;;;;;;0.35;0.35;;;2.10;99.90;;;;;;5092979;28;20213;-63
2024/01/18 05:22:30;;;;;;;0.00;0.00;;;2.10;99.90;;;;;;5094069;28;20207;-63
2024/01/18 05:24:56;;;;;;;0.00;0.00;;;2.00;99.90;;;;;;5094505;28;20168;-63
2024/01/18 05:27:23;;;;;;;0.00;0.00;;;1.90;99.90;;;;;;5094224;28;20233;-63
2024/01/18 05:29:48;;;;;;;0.10;0.10;;;1.90;99.90;;;;;;5093711;28;20180;-64
2024/01/18 05:32:14;;;;;;;0.00;0.00;;;1.90;99.90;;;;;;5093873;28;20183;-64
2024/01/18 05:34:40;;;;;;;0.00;0.00;;;1.90;99.90;;;;;;5093643;28;20171;-63
2024/01/18 05:37:06;;;;;;;0.00;0.00;;;1.90;99.90;;;;;;5093712;28;20188;-63
2024/01/18 05:39:31;;;;;;;0.00;0.00;;;1.80;99.90;;;;;;5093664;28;20250;-63
2024/01/18 05:41:57;;;;;;;0.00;0.00;;;1.80;99.90;;;;;;5093725;28;20273;-64
2024/01/18 05:44:22;;;;;;;0.10;0.10;;;1.80;99.90;;;;;;5093747;28;20168;-63
2024/01/18 05:46:48;;;;;;;0.00;0.00;;;1.80;99.90;;;;;;5093430;28;20176;-63
2024/01/18 05:49:13;;;;;;;0.30;0.30;;;1.80;99.90;;;;;;5093583;28;20251;-64
2024/01/18 05:51:39;;;;;;;0.00;0.00;;;1.80;99.90;;;;;;5092136;28;20180;-64
2024/01/18 05:54:05;;;;;;;0.05;0.05;;;1.70;99.90;;;;;;5093237;28;20187;-64
2024/01/18 05:56:30;;;;;;;0.00;0.00;;;1.60;99.90;;;;;;5093340;28;20176;-63
2024/01/18 05:58:56;;;;;;;0.20;0.20;;;1.60;99.90;;;;;;5093271;28;20251;-64
2024/01/18 06:01:21;;;;;;;0.00;0.00;;;1.60;99.90;;;;;;5093092;28;20203;-64
2024/01/18 06:03:47;;;;;;;0.00;0.00;;;1.60;99.90;;;;;;5091094;28;20219;-65
2024/01/18 06:06:13;;;;;;;0.00;0.00;;;1.70;99.90;;;;;;5093160;28;20168;-63
2024/01/18 06:08:39;;;;;;;0.00;0.00;;;1.70;99.90;;;;;;5093050;28;20640;-63
2024/01/18 06:11:04;;;;;;;0.00;0.00;;;1.80;99.90;;;;;;5093016;28;20179;-64
2024/01/18 06:13:30;;;;;;;0.00;0.00;;;1.80;99.90;;;;;;5093064;28;20576;-63
2024/01/18 06:15:55;;;;;;;0.00;0.00;;;1.80;99.90;;;;;;5093078;28;20176;-63
2024/01/18 06:18:21;;;;;;;0.00;0.00;;;1.90;99.90;;;;;;5093064;28;20176;-63
2024/01/18 06:20:47;;;;;;;0.10;0.10;;;1.90;99.90;;;;;;5092708;28;20651;-63
2024/01/18 06:23:13;;;;;;;0.00;0.00;;;1.90;99.90;;;;;;5092820;28;20239;-63
2024/01/18 06:25:39;;;;;;;0.00;0.00;;;1.90;99.90;;;;;;5092702;28;20261;-63
2024/01/18 06:28:04;;;;;;;0.00;0.00;;;1.90;99.90;;;;;;5092761;28;20180;-64
2024/01/18 06:30:30;;;;;;;0.20;0.20;;;2.00;99.90;;;;;;5092657;28;20708;-63
2024/01/18 06:32:56;;;;;;;0.00;0.00;;;2.00;99.90;;;;;;5092661;28;20168;-63
2024/01/18 06:35:22;;;;;;;0.00;0.00;;;2.00;99.90;;;;;;5092613;28;20183;-63
2024/01/18 06:37:48;;;;;;;0.00;0.00;;;1.90;99.90;;;;;;5092372;28;20309;-64
2024/01/18 06:40:15;;;;;;;0.10;0.10;;;1.90;99.90;;;;;;5092383;28;20746;-64
2024/01/18 06:42:40;;;;;;;0.00;0.00;;;1.90;99.90;;;;;;5092268;28;20247;-63
2024/01/18 06:45:07;;;;;;;0.00;0.00;;;2.00;99.90;;;;;;5092405;28;20207;-63
2024/01/18 06:47:33;;;;;;;0.00;0.00;;;2.00;99.90;;;;;;5091099;28;20766;-62
2024/01/18 06:49:59;;;;;;;0.00;0.00;;;2.00;99.90;;;;;;5090949;28;20266;-64
2024/01/18 06:52:24;;;;;;;0.00;0.00;;;2.00;99.90;;;;;;5092146;28;20172;-64
2024/01/18 06:54:50;;;;;;;0.00;0.00;;;2.00;99.90;;;;;;5092132;28;20176;-64
2024/01/18 06:57:15;;;;;;;0.00;0.00;;;2.00;99.90;;;;;;5091949;28;20537;-64
2024/01/18 06:59:46;;;;;;;0.17;0.17;;;1.90;99.90;;;;;;5092028;28;20156;-63
2024/01/18 07:02:11;;;;;;;0.10;0.10;;;1.90;99.90;;;;;;5092042;28;20265;-63
2024/01/18 07:04:37;;;;;;;0.00;0.00;;;1.80;99.90;;;;;;5091782;28;20188;-63
2024/01/18 07:07:03;;;;;;;0.00;0.00;;;1.80;99.90;;;;;;5090768;28;20179;-64
2024/01/18 07:09:29;;;;;;;0.03;0.03;;;1.80;99.90;;;;;;5091851;28;20176;-62
2024/01/18 07:11:54;;;;;;;0.00;0.00;;;1.80;99.90;;;;;;5091833;28;20237;-64
2024/01/18 07:14:21;;;;;;;0.00;0.00;;;1.80;99.90;;;;;;5091972;28;20639;-63
2024/01/18 07:16:47;;;;;;;0.15;0.15;;;1.80;99.90;;;;;;5091936;28;20175;-63
2024/01/18 07:19:12;;;;;;;0.00;0.00;;;1.80;99.90;;;;;;5090805;28;20180;-63
2024/01/18 07:21:38;;;;;;;0.00;0.00;;;1.80;99.90;;;;;;5091579;28;20204;-64
2024/01/18 07:24:03;;;;;;;0.00;0.00;;;1.80;99.90;;;;;;5091790;28;20172;-63
2024/01/18 07:26:29;;;;;;;0.00;0.00;;;1.80;99.90;;;;;;5091654;28;20168;-63
2024/01/18 07:28:54;;;;;;;0.00;0.00;;;1.70;99.90;;;;;;5091413;28;20530;-63
2024/01/18 07:31:20;;;;;;;0.00;0.00;;;1.70;99.90;;;;;;5091664;28;20168;-63
2024/01/18 07:33:45;;;;;;;0.00;0.00;;;1.60;99.90;;;;;;5091573;28;20199;-63
2024/01/18 07:36:11;;;;;;;0.00;0.00;;;1.60;99.90;;;;;;5091624;28;20534;-63
2024/01/18 07:38:36;;;;;;;0.00;0.00;;;1.60;99.90;;;;;;5091122;28;20218;-63
2024/01/18 07:41:02;;;;;;;0.05;0.05;;;1.60;99.90;;;;;;5091488;28;20191;-63
2024/01/18 07:43:29;;;;;;;0.00;0.00;;;1.60;99.90;;;;;;5091371;28;20623;-63
2024/01/18 07:45:54;;;;;;;0.10;0.10;;;1.60;99.90;;;;;;5091283;28;20168;-64
2024/01/18 07:48:20;;;;;;;0.00;0.00;;;1.60;99.90;;;;;;5091158;28;20183;-63
2024/01/18 07:50:45;;;;;;;0.00;0.00;;;1.70;99.90;;;;;;5090110;28;20173;-63
2024/01/18 07:53:11;;;;;;;0.03;0.03;;;1.60;99.90;;;;;;5091329;28;20556;-64
2024/01/18 07:55:36;;;;;;;0.10;0.10;;;1.60;99.90;;;;;;5091142;28;20678;-63
2024/01/18 07:58:02;;;;;;;0.00;0.00;;;1.60;99.90;;;;;;5091267;28;20176;-63
2024/01/18 08:00:28;;;;;;;0.57;0.57;;;1.60;99.90;;;;;;5091309;28;20176;-63
2024/01/18 08:02:53;;;;;;;0.40;0.40;;;1.60;99.90;;;;;;5091111;28;20746;-63
2024/01/18 08:05:20;;;;;;;0.10;0.10;;;1.60;99.90;;;;;;5091132;28;20194;-63
2024/01/18 08:07:45;;;;;;;0.40;0.40;;;1.60;99.90;;;;;;5091086;28;20168;-63
2024/01/18 08:10:11;;;;;;;0.00;0.00;;;1.70;99.90;;;;;;5091212;28;20168;-64
2024/01/18 08:12:37;;;;;;;0.00;0.00;;;1.70;99.90;;;;;;5090875;28;20795;-63
2024/01/18 08:15:07;;;;;;;0.00;0.00;;;1.70;99.90;;;;;;5091030;28;20181;-64
2024/01/18 08:17:34;;;;;;;0.00;0.00;;;1.70;99.90;;;;;;5091022;28;20187;-63
2024/01/18 08:20:00;;;;;;;0.47;0.47;;;1.70;99.90;;;;;;5091128;28;20164;-64
2024/01/18 08:22:25;;;;;;;0.00;0.00;;;1.80;99.90;;;;;;5090978;28;20211;-64
2024/01/18 08:24:51;;;;;;;0.00;0.00;;;1.80;99.90;;;;;;5089646;28;20168;-63
2024/01/18 08:27:16;;;;;;;0.00;0.00;;;1.80;99.90;;;;;;5094489;28;20187;-63
2024/01/18 08:29:42;;;;;;;0.43;0.43;;;1.80;99.90;;;;;;5095093;28;20168;-63
2024/01/18 08:32:08;;;;;;;0.00;0.00;;;1.80;99.90;;;;;;5095067;28;20585;-64
2024/01/18 08:34:35;;;;;;;0.00;0.00;;;1.80;99.90;;;;;;5095092;28;20176;-63
2024/01/18 08:37:01;;;;;;;0.00;0.00;;;1.90;99.90;;;;;;5094996;28;20184;-64
2024/01/18 08:39:27;;;;;;;0.00;0.00;;;1.90;99.90;;;;;;5094777;28;20207;-64
2024/01/18 08:41:56;;;;;;;0.00;0.00;;;1.90;99.90;;;;;;5094673;28;20303;-64
2024/01/18 08:44:21;;;;;;;0.00;0.00;;;1.90;99.90;;;;;;5094894;28;20176;-64
2024/01/18 08:46:47;;;;;;;0.00;0.00;;;1.90;99.90;;;;;;5094833;28;20180;-64
2024/01/18 08:49:12;;;;;;;0.10;0.10;;;2.00;99.90;;;;;;5094943;28;20703;-64
2024/01/18 08:51:38;;;;;;;0.00;0.00;;;2.00;99.90;;;;;;5093381;28;20626;-64
2024/01/18 08:54:03;;;;;;;0.00;0.00;;;2.00;99.90;;;;;;5094858;28;20267;-64
2024/01/18 08:56:29;;;;;;;0.00;0.00;;;2.00;99.90;;;;;;5094717;28;20233;-64
2024/01/18 08:58:54;;;;;;;0.00;0.00;;;2.00;99.90;;;;;;5094544;28;20217;-64
2024/01/18 09:01:20;;;;;;;0.00;0.00;;;2.00;99.90;;;;;;5094444;28;20176;-64
2024/01/18 09:03:45;;;;;;;0.00;0.00;;;2.00;99.90;;;;;;5094369;28;20703;-64
2024/01/18 09:06:11;;;;;;;0.00;0.00;;;2.10;99.90;;;;;;5094515;28;20239;-64
2024/01/18 09:08:36;;;;;;;0.00;0.00;;;2.10;99.90;;;;;;5094376;28;20180;-64
2024/01/18 09:11:03;;;;;;;0.00;0.00;;;2.10;99.90;;;;;;5094424;28;20182;-63
2024/01/18 09:13:29;;;;;;;0.08;0.08;;;2.20;99.90;;;;;;5094272;28;20539;-62
2024/01/18 09:15:54;;;;;;;0.00;0.00;;;2.20;99.90;;;;;;5094309;28;20253;-63
2024/01/18 09:18:20;;;;;;;0.00;0.00;;;2.20;99.90;;;;;;5094331;28;20164;-64
2024/01/18 09:20:46;;;;;;;0.00;0.00;;;2.20;99.90;;;;;;5094237;28;20187;-63
2024/01/18 09:23:12;;;;;;;0.10;0.10;;;2.30;99.90;;;;;;5092796;28;20329;-64
2024/01/18 09:25:39;;;;;;;0.00;0.00;;;2.30;99.90;;;;;;5093910;28;20206;-63
2024/01/18 09:28:07;;;;;;;0.00;0.00;;;2.30;99.90;;;;;;5094091;28;20522;-63
2024/01/18 09:30:33;;;;;;;0.00;0.00;;;2.30;99.90;;;;;;5094024;28;20176;-64
2024/01/18 09:32:58;;;;;;;0.43;0.43;;;2.30;99.90;;;;;;5093923;28;20235;-64
2024/01/18 09:35:25;;;;;;;0.00;0.00;;;2.40;99.90;;;;;;5092626;28;20172;-63
2024/01/18 09:37:50;;;;;;;0.00;0.00;;;2.40;99.90;;;;;;5091166;28;20184;-64
2024/01/18 09:40:16;;;;;;;0.00;0.00;;;2.30;99.90;;;;;;5093629;28;20227;-64
2024/01/18 09:42:47;;;;;;;0.20;0.20;;;2.30;99.90;;;;;;5093636;28;20702;-63
2024/01/18 09:45:14;;;;;;;0.00;0.00;;;2.30;99.90;;;;;;5093783;28;20176;-64
2024/01/18 09:47:42;;;;;;;0.00;0.00;;;2.30;99.90;;;;;;5093714;28;20600;-63
2024/01/18 09:50:09;;;;;;;0.00;0.00;;;2.30;99.90;;;;;;5093734;28;20172;-63
2024/01/18 09:52:34;;;;;;;0.00;0.00;;;2.30;99.90;;;;;;5093504;28;20180;-63
2024/01/18 09:55:00;;;;;;;0.00;0.00;;;2.30;99.90;;;;;;5092304;28;20662;-64
2024/01/18 09:57:32;;;;;;;0.00;0.00;;;2.30;99.90;;;;;;5092108;28;20176;-64
2024/01/18 10:00:00;;;;;;;0.00;0.00;;;2.20;99.90;;;;;;5093364;28;20165;-63
2024/01/18 10:02:27;;;;;;;0.00;0.00;;;2.20;99.90;;;;;;5093392;28;20694;-63
2024/01/18 10:05:00;;;;;;;0.00;0.00;;;2.20;99.90;;;;;;5093374;28;20183;-64
2024/01/18 10:07:26;;;;;;;0.00;0.00;;;2.20;99.90;;;;;;5093217;28;20187;-63
2024/01/18 10:09:51;;;;;;;0.00;0.00;;;2.20;99.90;;;;;;5093061;28;20507;-63
2024/01/18 10:12:17;;;;;;;0.00;0.00;;;2.10;99.90;;;;;;5093024;28;20179;-64
2024/01/18 10:14:44;;;;;;;0.00;0.00;;;2.10;99.90;;;;;;5093099;28;20172;-64
2024/01/18 10:17:21;;;;;;;0.00;0.00;;;2.10;99.90;;;;;;5093204;28;20176;-63
2024/01/18 10:19:54;;;;;;;0.00;0.00;;;2.10;99.90;;;;;;5093007;28;20674;-63
2024/01/18 10:22:21;;;;;;;0.00;0.00;;;2.10;99.90;;;;;;5092934;28;20990;-64
2024/01/18 10:24:46;;;;;;;0.00;0.00;;;2.00;99.90;;;;;;5092936;28;20639;-64
2024/01/18 10:27:12;;;;;;;0.08;0.08;;;2.10;99.90;;;;;;5092967;28;20225;-64
2024/01/18 10:29:38;;;;;;;0.00;0.00;;;2.00;99.90;;;;;;5091375;28;20214;-64
2024/01/18 10:32:06;;;;;;;0.10;0.10;;;2.10;99.90;;;;;;5092870;28;20180;-64
2024/01/18 10:34:36;;;;;;;0.00;0.00;;;2.00;99.90;;;;;;5092587;28;20202;-63
2024/01/18 10:37:02;;;;;;;0.00;0.00;;;2.10;99.90;;;;;;5092622;28;20199;-64
2024/01/18 10:39:40;;;;;;;0.00;0.00;;;2.10;99.90;;;;;;5091027;28;20269;-64
2024/01/18 10:42:10;;;;;;;0.00;0.00;;;2.10;99.90;;;;;;5092514;28;20224;-64
2024/01/18 10:44:43;;;;;;;0.00;0.00;;;2.10;99.90;;;;;;5092312;28;20259;-64
2024/01/18 10:47:10;;;;;;;0.00;0.00;;;2.00;99.90;;;;;;5092528;28;20186;-64
2024/01/18 10:49:36;;;;;;;0.00;0.00;;;1.90;99.90;;;;;;5091798;28;20172;-63
2024/01/18 10:52:03;;;;;;;0.20;0.20;;;1.80;99.90;;;;;;5092361;28;20183;-64
2024/01/18 10:54:30;;;;;;;0.20;0.20;;;1.80;99.90;;;;;;5092158;28;20168;-63
2024/01/18 10:56:59;;;;;;;0.22;0.22;;;1.70;99.90;;;;;;5092206;28;20658;-64
2024/01/18 10:59:31;;;;;;;0.00;0.00;;;1.60;99.90;;;;;;5092277;28;20176;-63
2024/01/18 11:02:00;;;;;;;0.00;0.00;;;1.60;99.90;;;;;;5091971;28;20216;-64
2024/01/18 11:04:27;;;;;;;0.17;0.17;;;1.50;99.90;;;;;;5092117;28;20168;-64
2024/01/18 11:06:55;;;;;;;0.00;0.00;;;1.50;99.90;;;;;;5092019;28;20184;-64
2024/01/18 11:09:23;;;;;;;0.65;0.65;;;1.50;99.90;;;;;;5092206;28;20249;-63
2024/01/18 11:11:49;;;;;;;1.00;1.00;;;1.50;99.90;;;;;;5092005;28;20298;-64
2024/01/18 11:14:15;;;;;;;0.05;0.05;;;1.50;99.90;;;;;;5091895;28;20183;-64
2024/01/18 11:16:41;;;;;;;0.00;0.00;;;1.40;99.90;;;;;;5091770;28;20173;-64
2024/01/18 11:19:06;;;;;;;0.00;0.00;;;1.50;99.90;;;;;;5091896;28;20175;-64
2024/01/18 11:21:40;;;;;;;0.43;0.43;;;1.50;99.90;;;;;;5091715;28;20243;-64
2024/01/18 11:24:13;;;;;;;0.03;0.03;;;1.50;99.90;;;;;;5091828;28;20187;-62
2024/01/18 11:26:38;;;;;;;0.03;0.03;;;1.70;99.90;;;;;;5091636;28;20183;-62
2024/01/18 11:29:18;;;;;;;0.08;0.08;;;1.70;99.90;;;;;;5091631;28;20247;-63
2024/01/18 11:31:50;;;;;;;0.00;0.00;;;1.60;99.90;;;;;;5091652;28;20310;-62
2024/01/18 11:34:49;;;;;;;0.00;0.00;;;1.60;99.90;;;;;;5091527;28;20164;-63
2024/01/18 11:37:16;;;;;;;0.65;0.65;;;1.50;99.90;;;;;;5067999;28;20536;-64
2024/01/18 11:39:48;;;;;;;0.10;0.10;;;1.40;99.90;;;;;;5091256;28;20235;-63
2024/01/18 11:42:28;;;;;;;0.10;0.10;;;1.40;99.90;;;;;;5091339;28;20204;-64
2024/01/18 11:44:57;;;;;;;0.17;0.17;;;1.40;99.90;;;;;;5091464;28;20219;-63
2024/01/18 11:47:23;;;;;;;0.00;0.00;;;1.40;99.90;;;;;;5091360;28;20649;-63
2024/01/18 11:49:49;;;;;;;0.00;0.00;;;1.40;99.90;;;;;;5091338;28;20238;-63
2024/01/18 11:52:16;;;;;;;0.00;0.00;;;1.40;99.90;;;;;;5091142;28;20179;-64
2024/01/18 11:54:44;;;;;;;0.00;0.00;;;1.50;99.90;;;;;;5091271;28;20168;-64
2024/01/18 11:57:14;;;;;;;0.10;0.10;;;1.40;99.90;;;;;;5091241;28;20172;-64
2024/01/18 11:59:45;;;;;;;0.00;0.00;;;1.50;99.90;;;;;;5091034;28;20269;-64
2024/01/18 12:02:11;;;;;;;0.03;0.03;;;1.40;99.90;;;;;;5090742;28;20752;-64
2024/01/18 12:04:36;;;;;;;0.30;0.30;;;1.40;99.90;;;;;;5091328;28;20170;-63
2024/01/18 12:07:03;;;;;;;0.00;0.00;;;1.40;99.90;;;;;;5091251;28;20709;-63
2024/01/18 12:09:32;;;;;;;0.00;0.00;;;1.50;99.90;;;;;;5091256;28;20178;-63
2024/01/18 12:11:59;;;;;;;0.00;0.00;;;1.50;99.90;;;;;;5091087;28;20172;-63
2024/01/18 12:14:25;;;;;;;0.00;0.00;;;1.60;99.90;;;;;;5091198;28;20180;-63
2024/01/18 12:16:51;;;;;;;0.00;0.00;;;1.70;99.90;;;;;;5090973;28;20180;-64
2024/01/18 12:19:34;;;;;;;0.00;0.00;;;1.70;99.90;;;;;;5090954;28;20164;-64
2024/01/18 12:22:08;;;;;;;0.00;0.00;;;1.80;99.90;;;;;;5090826;28;20195;-63
2024/01/18 12:24:34;;;;;;;0.00;0.00;;;1.80;99.90;;;;;;5090997;28;20258;-63
2024/01/18 12:26:59;;;;;;;0.00;0.00;;;1.80;99.90;;;;;;5090982;28;20192;-64
2024/01/18 12:29:25;;;;;;;0.00;0.00;;;1.80;99.90;;;;;;5090970;28;20179;-65
2024/01/18 12:31:51;;;;;;;0.00;0.00;;;1.70;99.90;;;;;;5090832;28;20633;-63
2024/01/18 12:34:19;;;;;;;0.10;0.10;;;1.60;99.90;;;;;;5090704;28;20164;-64
2024/01/18 12:36:45;;;;;;;0.10;0.10;;;1.60;99.90;;;;;;5090757;28;20164;-63
2024/01/18 12:39:11;;;;;;;0.00;0.00;;;1.60;99.90;;;;;;5090720;28;20215;-63
2024/01/18 12:41:36;;;;;;;0.00;0.00;;;1.60;99.90;;;;;;5090560;28;20562;-62
2024/01/18 12:44:11;;;;;;;0.00;0.00;;;1.50;99.90;;;;;;5089474;28;20179;-63
2024/01/18 12:46:37;;;;;;;0.00;0.00;;;1.40;99.90;;;;;;5090718;28;20175;-62
2024/01/18 12:49:03;;;;;;;0.00;0.00;;;1.40;99.90;;;;;;5091144;28;20180;-62
2024/01/18 12:51:29;;;;;;;0.00;0.00;;;1.40;99.90;;;;;;5091037;28;20187;-62
2024/01/18 12:53:55;;;;;;;0.10;0.10;;;1.40;99.90;;;;;;5090873;28;20199;-63